sensor_id;sensor_type;location;lat;lon;timestamp;P1;durP1;ratioP1;P2;durP2;ratioP2
11203;SDS011;5659;49.408;11.116;2023-06-19T00:00:11;9.57;;;7.88;;
11203;SDS011;5659;49.408;11.116;2023-06-19T00:02:38;9.25;;;8.27;;
11203;SDS011;5659;49.408;11.116;2023-06-19T00:05:05;11.73;;;8.10;;
11203;SDS011;5659;49.408;11.116;2023-06-19T00:07:31;9.73;;;7.85;;
11203;SDS011;5659;49.408;11.116;2023-06-19T00:09:57;9.02;;;8.13;;
11203;SDS011;5659;49.408;11.116;2023-06-19T00:12:23;9.35;;;8.35;;
11203;SDS011;5659;49.408;11.116;2023-06-19T00:14:49;10.30;;;8.30;;
11203;SDS011;5659;49.408;11.116;2023-06-19T00:17:15;9.82;;;8.48;;
11203;SDS011;5659;49.408;11.116;2023-06-19T00:19:42;11.48;;;8.20;;
11203;SDS011;5659;49.408;11.116;2023-06-19T00:22:07;9.05;;;8.13;;
11203;SDS011;5659;49.408;11.116;2023-06-19T00:24:33;8.98;;;7.82;;
11203;SDS011;5659;49.408;11.116;2023-06-19T00:26:59;9.02;;;8.10;;
11203;SDS011;5659;49.408;11.116;2023-06-19T00:29:27;9.73;;;7.97;;
11203;SDS011;5659;49.408;11.116;2023-06-19T00:31:53;10.50;;;8.50;;
11203;SDS011;5659;49.408;11.116;2023-06-19T00:34:19;8.68;;;7.78;;
11203;SDS011;5659;49.408;11.116;2023-06-19T00:36:45;8.40;;;7.50;;
11203;SDS011;5659;49.408;11.116;2023-06-19T00:39:11;9.82;;;8.68;;
11203;SDS011;5659;49.408;11.116;2023-06-19T00:41:37;9.90;;;8.02;;
11203;SDS011;5659;49.408;11.116;2023-06-19T00:44:04;9.60;;;7.55;;
11203;SDS011;5659;49.408;11.116;2023-06-19T00:46:30;10.55;;;8.60;;
11203;SDS011;5659;49.408;11.116;2023-06-19T00:48:56;10.65;;;8.10;;
11203;SDS011;5659;49.408;11.116;2023-06-19T00:51:23;8.90;;;8.02;;
11203;SDS011;5659;49.408;11.116;2023-06-19T00:53:49;11.55;;;8.93;;
11203;SDS011;5659;49.408;11.116;2023-06-19T00:56:15;9.15;;;7.93;;
11203;SDS011;5659;49.408;11.116;2023-06-19T00:58:43;8.90;;;8.00;;
11203;SDS011;5659;49.408;11.116;2023-06-19T01:01:09;8.73;;;7.78;;
11203;SDS011;5659;49.408;11.116;2023-06-19T01:03:36;12.57;;;8.45;;
11203;SDS011;5659;49.408;11.116;2023-06-19T01:06:02;8.93;;;8.02;;
11203;SDS011;5659;49.408;11.116;2023-06-19T01:11:00;11.90;;;8.02;;
11203;SDS011;5659;49.408;11.116;2023-06-19T01:13:41;10.45;;;7.88;;
11203;SDS011;5659;49.408;11.116;2023-06-19T01:16:10;8.55;;;7.60;;
11203;SDS011;5659;49.408;11.116;2023-06-19T01:18:37;9.20;;;7.82;;
11203;SDS011;5659;49.408;11.116;2023-06-19T01:21:10;10.35;;;6.95;;
11203;SDS011;5659;49.408;11.116;2023-06-19T01:23:36;12.45;;;8.27;;
11203;SDS011;5659;49.408;11.116;2023-06-19T01:26:02;8.82;;;7.75;;
11203;SDS011;5659;49.408;11.116;2023-06-19T01:28:28;9.48;;;7.22;;
11203;SDS011;5659;49.408;11.116;2023-06-19T01:30:54;12.95;;;8.00;;
11203;SDS011;5659;49.408;11.116;2023-06-19T01:33:25;9.60;;;7.95;;
11203;SDS011;5659;49.408;11.116;2023-06-19T01:35:53;13.95;;;8.48;;
11203;SDS011;5659;49.408;11.116;2023-06-19T01:38:20;18.40;;;9.00;;
11203;SDS011;5659;49.408;11.116;2023-06-19T01:40:50;11.75;;;8.20;;
11203;SDS011;5659;49.408;11.116;2023-06-19T01:43:18;10.35;;;8.05;;
11203;SDS011;5659;49.408;11.116;2023-06-19T01:45:44;14.55;;;7.78;;
11203;SDS011;5659;49.408;11.116;2023-06-19T01:48:10;9.65;;;8.63;;
11203;SDS011;5659;49.408;11.116;2023-06-19T01:50:36;10.93;;;8.10;;
11203;SDS011;5659;49.408;11.116;2023-06-19T01:53:02;13.55;;;7.80;;
11203;SDS011;5659;49.408;11.116;2023-06-19T01:55:28;10.95;;;7.82;;
11203;SDS011;5659;49.408;11.116;2023-06-19T01:57:54;10.38;;;8.35;;
11203;SDS011;5659;49.408;11.116;2023-06-19T02:00:20;13.32;;;9.50;;
11203;SDS011;5659;49.408;11.116;2023-06-19T02:02:46;10.05;;;8.55;;
11203;SDS011;5659;49.408;11.116;2023-06-19T02:05:13;9.55;;;8.02;;
11203;SDS011;5659;49.408;11.116;2023-06-19T02:07:39;8.50;;;7.60;;
11203;SDS011;5659;49.408;11.116;2023-06-19T02:10:05;10.73;;;7.70;;
11203;SDS011;5659;49.408;11.116;2023-06-19T02:12:33;10.43;;;7.80;;
11203;SDS011;5659;49.408;11.116;2023-06-19T02:14:58;9.95;;;8.25;;
11203;SDS011;5659;49.408;11.116;2023-06-19T02:17:24;8.40;;;7.45;;
11203;SDS011;5659;49.408;11.116;2023-06-19T02:19:50;10.20;;;8.20;;
11203;SDS011;5659;49.408;11.116;2023-06-19T02:22:17;11.50;;;7.82;;
11203;SDS011;5659;49.408;11.116;2023-06-19T02:24:43;9.68;;;8.05;;
11203;SDS011;5659;49.408;11.116;2023-06-19T02:27:09;10.07;;;8.35;;
11203;SDS011;5659;49.408;11.116;2023-06-19T02:29:35;9.13;;;8.20;;
11203;SDS011;5659;49.408;11.116;2023-06-19T02:32:02;11.85;;;8.30;;
11203;SDS011;5659;49.408;11.116;2023-06-19T02:34:28;9.75;;;8.23;;
11203;SDS011;5659;49.408;11.116;2023-06-19T02:36:54;10.07;;;7.50;;
11203;SDS011;5659;49.408;11.116;2023-06-19T02:39:20;9.82;;;8.32;;
11203;SDS011;5659;49.408;11.116;2023-06-19T02:41:46;9.73;;;8.02;;
11203;SDS011;5659;49.408;11.116;2023-06-19T02:44:12;9.30;;;8.27;;
11203;SDS011;5659;49.408;11.116;2023-06-19T02:46:39;11.05;;;8.38;;
11203;SDS011;5659;49.408;11.116;2023-06-19T02:49:05;10.38;;;8.70;;
11203;SDS011;5659;49.408;11.116;2023-06-19T02:51:31;8.40;;;7.38;;
11203;SDS011;5659;49.408;11.116;2023-06-19T02:53:57;9.45;;;7.85;;
11203;SDS011;5659;49.408;11.116;2023-06-19T02:56:23;8.95;;;7.65;;
11203;SDS011;5659;49.408;11.116;2023-06-19T02:58:49;8.88;;;7.97;;
11203;SDS011;5659;49.408;11.116;2023-06-19T03:01:16;8.90;;;7.78;;
11203;SDS011;5659;49.408;11.116;2023-06-19T03:03:42;7.40;;;6.60;;
11203;SDS011;5659;49.408;11.116;2023-06-19T03:06:08;9.05;;;7.07;;
11203;SDS011;5659;49.408;11.116;2023-06-19T03:08:35;8.60;;;7.70;;
11203;SDS011;5659;49.408;11.116;2023-06-19T03:11:01;8.70;;;7.10;;
11203;SDS011;5659;49.408;11.116;2023-06-19T03:16:15;7.88;;;7.07;;
11203;SDS011;5659;49.408;11.116;2023-06-19T03:18:41;8.95;;;6.90;;
11203;SDS011;5659;49.408;11.116;2023-06-19T03:21:09;10.40;;;7.15;;
11203;SDS011;5659;49.408;11.116;2023-06-19T03:23:35;10.48;;;7.00;;
11203;SDS011;5659;49.408;11.116;2023-06-19T03:26:02;8.90;;;6.50;;
11203;SDS011;5659;49.408;11.116;2023-06-19T03:28:28;8.00;;;6.90;;
11203;SDS011;5659;49.408;11.116;2023-06-19T03:30:54;9.15;;;7.05;;
11203;SDS011;5659;49.408;11.116;2023-06-19T03:33:20;8.68;;;6.72;;
11203;SDS011;5659;49.408;11.116;2023-06-19T03:35:46;10.15;;;7.18;;
11203;SDS011;5659;49.408;11.116;2023-06-19T03:38:12;7.97;;;6.82;;
11203;SDS011;5659;49.408;11.116;2023-06-19T03:40:38;7.03;;;6.32;;
11203;SDS011;5659;49.408;11.116;2023-06-19T03:43:05;7.97;;;6.40;;
11203;SDS011;5659;49.408;11.116;2023-06-19T03:45:30;8.32;;;7.40;;
11203;SDS011;5659;49.408;11.116;2023-06-19T03:47:56;8.82;;;7.38;;
11203;SDS011;5659;49.408;11.116;2023-06-19T03:50:22;7.90;;;7.03;;
11203;SDS011;5659;49.408;11.116;2023-06-19T03:52:48;12.98;;;6.60;;
11203;SDS011;5659;49.408;11.116;2023-06-19T03:55:14;7.93;;;6.97;;
11203;SDS011;5659;49.408;11.116;2023-06-19T03:57:42;8.98;;;6.90;;
11203;SDS011;5659;49.408;11.116;2023-06-19T04:00:08;7.97;;;7.07;;
11203;SDS011;5659;49.408;11.116;2023-06-19T04:02:36;7.78;;;6.97;;
11203;SDS011;5659;49.408;11.116;2023-06-19T04:05:04;11.75;;;7.50;;
11203;SDS011;5659;49.408;11.116;2023-06-19T04:07:31;10.85;;;7.25;;
11203;SDS011;5659;49.408;11.116;2023-06-19T04:09:57;11.20;;;7.82;;
11203;SDS011;5659;49.408;11.116;2023-06-19T04:12:23;9.82;;;7.90;;
11203;SDS011;5659;49.408;11.116;2023-06-19T04:14:49;10.43;;;7.20;;
11203;SDS011;5659;49.408;11.116;2023-06-19T04:17:15;8.85;;;7.40;;
11203;SDS011;5659;49.408;11.116;2023-06-19T04:19:41;12.73;;;7.43;;
11203;SDS011;5659;49.408;11.116;2023-06-19T04:22:07;10.90;;;7.82;;
11203;SDS011;5659;49.408;11.116;2023-06-19T04:24:34;9.95;;;7.20;;
11203;SDS011;5659;49.408;11.116;2023-06-19T04:27:00;9.27;;;7.60;;
11203;SDS011;5659;49.408;11.116;2023-06-19T04:29:26;9.70;;;7.65;;
11203;SDS011;5659;49.408;11.116;2023-06-19T04:31:57;10.50;;;8.10;;
11203;SDS011;5659;49.408;11.116;2023-06-19T04:34:23;11.52;;;7.55;;
11203;SDS011;5659;49.408;11.116;2023-06-19T04:36:50;14.90;;;8.40;;
11203;SDS011;5659;49.408;11.116;2023-06-19T04:39:16;8.50;;;7.60;;
11203;SDS011;5659;49.408;11.116;2023-06-19T04:41:45;10.43;;;7.57;;
11203;SDS011;5659;49.408;11.116;2023-06-19T04:44:11;11.10;;;7.68;;
11203;SDS011;5659;49.408;11.116;2023-06-19T04:46:37;9.07;;;7.57;;
11203;SDS011;5659;49.408;11.116;2023-06-19T04:49:04;8.98;;;7.30;;
11203;SDS011;5659;49.408;11.116;2023-06-19T04:51:33;10.70;;;7.45;;
11203;SDS011;5659;49.408;11.116;2023-06-19T04:53:59;11.57;;;7.80;;
11203;SDS011;5659;49.408;11.116;2023-06-19T04:56:25;9.82;;;6.97;;
11203;SDS011;5659;49.408;11.116;2023-06-19T04:58:51;9.43;;;7.28;;
11203;SDS011;5659;49.408;11.116;2023-06-19T05:01:21;9.50;;;6.93;;
11203;SDS011;5659;49.408;11.116;2023-06-19T05:03:52;9.75;;;7.53;;
11203;SDS011;5659;49.408;11.116;2023-06-19T05:06:18;12.13;;;7.47;;
11203;SDS011;5659;49.408;11.116;2023-06-19T05:08:44;9.77;;;7.75;;
11203;SDS011;5659;49.408;11.116;2023-06-19T05:11:10;10.32;;;7.57;;
11203;SDS011;5659;49.408;11.116;2023-06-19T05:13:36;8.90;;;7.45;;
11203;SDS011;5659;49.408;11.116;2023-06-19T05:16:02;8.45;;;7.30;;
11203;SDS011;5659;49.408;11.116;2023-06-19T05:18:28;10.88;;;6.97;;
11203;SDS011;5659;49.408;11.116;2023-06-19T05:20:54;10.52;;;7.70;;
11203;SDS011;5659;49.408;11.116;2023-06-19T05:23:20;10.20;;;7.68;;
11203;SDS011;5659;49.408;11.116;2023-06-19T05:25:46;15.52;;;7.57;;
11203;SDS011;5659;49.408;11.116;2023-06-19T05:28:12;9.50;;;7.43;;
11203;SDS011;5659;49.408;11.116;2023-06-19T05:30:38;14.50;;;7.30;;
11203;SDS011;5659;49.408;11.116;2023-06-19T05:33:04;7.80;;;6.97;;
11203;SDS011;5659;49.408;11.116;2023-06-19T05:35:30;11.85;;;6.80;;
11203;SDS011;5659;49.408;11.116;2023-06-19T05:37:56;7.88;;;6.88;;
11203;SDS011;5659;49.408;11.116;2023-06-19T05:40:22;8.63;;;7.20;;
11203;SDS011;5659;49.408;11.116;2023-06-19T05:42:51;9.90;;;7.20;;
11203;SDS011;5659;49.408;11.116;2023-06-19T05:45:17;7.70;;;6.60;;
11203;SDS011;5659;49.408;11.116;2023-06-19T05:47:43;9.60;;;6.75;;
11203;SDS011;5659;49.408;11.116;2023-06-19T05:50:09;7.60;;;6.75;;
11203;SDS011;5659;49.408;11.116;2023-06-19T05:52:35;13.18;;;6.82;;
11203;SDS011;5659;49.408;11.116;2023-06-19T05:55:01;9.30;;;6.85;;
11203;SDS011;5659;49.408;11.116;2023-06-19T05:57:27;7.45;;;6.57;;
11203;SDS011;5659;49.408;11.116;2023-06-19T05:59:53;8.25;;;6.40;;
11203;SDS011;5659;49.408;11.116;2023-06-19T06:02:19;12.40;;;6.80;;
11203;SDS011;5659;49.408;11.116;2023-06-19T06:04:45;9.07;;;6.38;;
11203;SDS011;5659;49.408;11.116;2023-06-19T06:07:11;7.63;;;6.63;;
11203;SDS011;5659;49.408;11.116;2023-06-19T06:09:38;14.98;;;7.80;;
11203;SDS011;5659;49.408;11.116;2023-06-19T06:12:04;10.45;;;7.28;;
11203;SDS011;5659;49.408;11.116;2023-06-19T06:14:30;7.20;;;6.50;;
11203;SDS011;5659;49.408;11.116;2023-06-19T06:16:56;7.20;;;6.50;;
11203;SDS011;5659;49.408;11.116;2023-06-19T06:19:22;8.85;;;6.53;;
11203;SDS011;5659;49.408;11.116;2023-06-19T06:21:49;7.38;;;6.60;;
11203;SDS011;5659;49.408;11.116;2023-06-19T06:24:15;8.48;;;6.80;;
11203;SDS011;5659;49.408;11.116;2023-06-19T06:26:41;14.15;;;8.15;;
11203;SDS011;5659;49.408;11.116;2023-06-19T06:29:07;17.25;;;9.35;;
11203;SDS011;5659;49.408;11.116;2023-06-19T06:31:34;10.60;;;7.90;;
11203;SDS011;5659;49.408;11.116;2023-06-19T06:34:00;11.35;;;8.30;;
11203;SDS011;5659;49.408;11.116;2023-06-19T06:36:26;10.90;;;8.18;;
11203;SDS011;5659;49.408;11.116;2023-06-19T06:38:52;8.25;;;7.40;;
11203;SDS011;5659;49.408;11.116;2023-06-19T06:41:18;10.88;;;7.72;;
11203;SDS011;5659;49.408;11.116;2023-06-19T06:43:43;10.00;;;7.22;;
11203;SDS011;5659;49.408;11.116;2023-06-19T06:46:10;9.75;;;7.00;;
11203;SDS011;5659;49.408;11.116;2023-06-19T06:48:36;12.77;;;7.68;;
11203;SDS011;5659;49.408;11.116;2023-06-19T06:51:02;7.50;;;6.75;;
11203;SDS011;5659;49.408;11.116;2023-06-19T06:53:28;12.50;;;7.82;;
11203;SDS011;5659;49.408;11.116;2023-06-19T06:55:57;10.00;;;6.97;;
11203;SDS011;5659;49.408;11.116;2023-06-19T06:58:23;8.32;;;6.32;;
11203;SDS011;5659;49.408;11.116;2023-06-19T07:00:49;16.30;;;7.20;;
11203;SDS011;5659;49.408;11.116;2023-06-19T07:03:16;6.93;;;6.22;;
11203;SDS011;5659;49.408;11.116;2023-06-19T07:05:43;10.27;;;6.97;;
11203;SDS011;5659;49.408;11.116;2023-06-19T07:08:08;12.77;;;7.20;;
11203;SDS011;5659;49.408;11.116;2023-06-19T07:10:34;11.30;;;7.18;;
11203;SDS011;5659;49.408;11.116;2023-06-19T07:13:00;9.18;;;7.00;;
11203;SDS011;5659;49.408;11.116;2023-06-19T07:15:26;7.55;;;6.35;;
11203;SDS011;5659;49.408;11.116;2023-06-19T07:17:52;7.93;;;6.13;;
11203;SDS011;5659;49.408;11.116;2023-06-19T07:20:18;12.98;;;6.13;;
11203;SDS011;5659;49.408;11.116;2023-06-19T07:22:44;8.55;;;6.40;;
11203;SDS011;5659;49.408;11.116;2023-06-19T07:25:11;10.20;;;6.50;;
11203;SDS011;5659;49.408;11.116;2023-06-19T07:27:37;11.07;;;5.90;;
11203;SDS011;5659;49.408;11.116;2023-06-19T07:30:03;7.22;;;5.70;;
11203;SDS011;5659;49.408;11.116;2023-06-19T07:32:29;8.23;;;6.07;;
11203;SDS011;5659;49.408;11.116;2023-06-19T07:34:55;14.35;;;5.65;;
11203;SDS011;5659;49.408;11.116;2023-06-19T07:37:21;6.82;;;4.68;;
11203;SDS011;5659;49.408;11.116;2023-06-19T07:39:48;6.60;;;4.97;;
11203;SDS011;5659;49.408;11.116;2023-06-19T07:42:14;4.47;;;3.70;;
11203;SDS011;5659;49.408;11.116;2023-06-19T07:44:41;4.35;;;3.63;;
11203;SDS011;5659;49.408;11.116;2023-06-19T07:47:07;5.63;;;3.53;;
11203;SDS011;5659;49.408;11.116;2023-06-19T07:49:33;3.60;;;3.15;;
11203;SDS011;5659;49.408;11.116;2023-06-19T07:51:59;6.65;;;3.30;;
11203;SDS011;5659;49.408;11.116;2023-06-19T07:54:25;9.40;;;3.10;;
11203;SDS011;5659;49.408;11.116;2023-06-19T07:56:51;5.35;;;3.25;;
11203;SDS011;5659;49.408;11.116;2023-06-19T07:59:17;5.15;;;3.35;;
11203;SDS011;5659;49.408;11.116;2023-06-19T08:01:43;5.57;;;3.30;;
11203;SDS011;5659;49.408;11.116;2023-06-19T08:04:09;4.57;;;3.30;;
11203;SDS011;5659;49.408;11.116;2023-06-19T08:06:35;4.05;;;2.97;;
11203;SDS011;5659;49.408;11.116;2023-06-19T08:09:01;4.88;;;3.03;;
11203;SDS011;5659;49.408;11.116;2023-06-19T08:11:27;7.30;;;3.50;;
11203;SDS011;5659;49.408;11.116;2023-06-19T08:13:53;7.95;;;3.30;;
11203;SDS011;5659;49.408;11.116;2023-06-19T08:16:20;5.60;;;3.83;;
11203;SDS011;5659;49.408;11.116;2023-06-19T08:18:46;4.78;;;3.78;;
11203;SDS011;5659;49.408;11.116;2023-06-19T08:21:12;5.95;;;3.65;;
11203;SDS011;5659;49.408;11.116;2023-06-19T08:23:38;3.95;;;3.17;;
11203;SDS011;5659;49.408;11.116;2023-06-19T08:26:05;3.42;;;3.08;;
11203;SDS011;5659;49.408;11.116;2023-06-19T08:28:32;6.43;;;3.40;;
11203;SDS011;5659;49.408;11.116;2023-06-19T08:30:58;3.80;;;3.40;;
11203;SDS011;5659;49.408;11.116;2023-06-19T08:33:24;7.80;;;3.60;;
11203;SDS011;5659;49.408;11.116;2023-06-19T08:35:50;3.35;;;2.90;;
11203;SDS011;5659;49.408;11.116;2023-06-19T08:38:17;4.70;;;3.55;;
11203;SDS011;5659;49.408;11.116;2023-06-19T08:40:43;4.78;;;2.97;;
11203;SDS011;5659;49.408;11.116;2023-06-19T08:43:10;3.78;;;3.30;;
11203;SDS011;5659;49.408;11.116;2023-06-19T08:45:36;3.53;;;2.97;;
11203;SDS011;5659;49.408;11.116;2023-06-19T08:48:02;4.68;;;3.42;;
11203;SDS011;5659;49.408;11.116;2023-06-19T08:50:33;5.95;;;3.10;;
11203;SDS011;5659;49.408;11.116;2023-06-19T08:52:59;4.18;;;3.20;;
11203;SDS011;5659;49.408;11.116;2023-06-19T08:55:25;4.32;;;2.95;;
11203;SDS011;5659;49.408;11.116;2023-06-19T08:57:51;5.53;;;3.65;;
11203;SDS011;5659;49.408;11.116;2023-06-19T09:00:24;4.63;;;3.20;;
11203;SDS011;5659;49.408;11.116;2023-06-19T09:02:50;3.55;;;3.10;;
11203;SDS011;5659;49.408;11.116;2023-06-19T09:05:18;4.00;;;3.55;;
11203;SDS011;5659;49.408;11.116;2023-06-19T09:07:44;7.03;;;3.17;;
11203;SDS011;5659;49.408;11.116;2023-06-19T09:10:14;4.10;;;3.10;;
11203;SDS011;5659;49.408;11.116;2023-06-19T09:12:41;5.65;;;3.25;;
11203;SDS011;5659;49.408;11.116;2023-06-19T09:15:12;3.80;;;3.22;;
11203;SDS011;5659;49.408;11.116;2023-06-19T09:17:38;5.05;;;4.00;;
11203;SDS011;5659;49.408;11.116;2023-06-19T09:20:05;16.60;;;4.47;;
11203;SDS011;5659;49.408;11.116;2023-06-19T09:22:31;6.85;;;5.20;;
11203;SDS011;5659;49.408;11.116;2023-06-19T09:25:01;5.45;;;4.95;;
11203;SDS011;5659;49.408;11.116;2023-06-19T09:27:32;9.32;;;5.05;;
11203;SDS011;5659;49.408;11.116;2023-06-19T09:29:58;6.45;;;4.43;;
11203;SDS011;5659;49.408;11.116;2023-06-19T09:32:25;6.55;;;4.43;;
11203;SDS011;5659;49.408;11.116;2023-06-19T09:34:52;5.03;;;4.55;;
11203;SDS011;5659;49.408;11.116;2023-06-19T09:37:27;5.30;;;4.32;;
11203;SDS011;5659;49.408;11.116;2023-06-19T09:39:57;8.88;;;4.53;;
11203;SDS011;5659;49.408;11.116;2023-06-19T09:42:26;5.15;;;4.55;;
11203;SDS011;5659;49.408;11.116;2023-06-19T09:44:54;7.15;;;5.10;;
11203;SDS011;5659;49.408;11.116;2023-06-19T09:47:21;5.60;;;4.80;;
11203;SDS011;5659;49.408;11.116;2023-06-19T09:49:50;5.85;;;5.28;;
11203;SDS011;5659;49.408;11.116;2023-06-19T09:52:19;5.90;;;5.30;;
11203;SDS011;5659;49.408;11.116;2023-06-19T09:54:47;5.63;;;4.85;;
11203;SDS011;5659;49.408;11.116;2023-06-19T09:57:14;8.45;;;4.88;;
11203;SDS011;5659;49.408;11.116;2023-06-19T09:59:40;11.23;;;4.60;;
11203;SDS011;5659;49.408;11.116;2023-06-19T10:02:07;4.68;;;4.20;;
11203;SDS011;5659;49.408;11.116;2023-06-19T10:04:46;8.05;;;5.35;;
11203;SDS011;5659;49.408;11.116;2023-06-19T10:07:17;6.07;;;5.43;;
11203;SDS011;5659;49.408;11.116;2023-06-19T10:12:35;5.72;;;4.57;;
11203;SDS011;5659;49.408;11.116;2023-06-19T10:15:08;8.98;;;4.70;;
11203;SDS011;5659;49.408;11.116;2023-06-19T10:17:34;6.90;;;4.25;;
11203;SDS011;5659;49.408;11.116;2023-06-19T10:20:00;6.40;;;4.47;;
11203;SDS011;5659;49.408;11.116;2023-06-19T10:22:30;7.78;;;4.60;;
11203;SDS011;5659;49.408;11.116;2023-06-19T10:24:56;4.65;;;4.25;;
11203;SDS011;5659;49.408;11.116;2023-06-19T10:27:23;5.60;;;4.50;;
11203;SDS011;5659;49.408;11.116;2023-06-19T10:29:53;5.00;;;4.40;;
11203;SDS011;5659;49.408;11.116;2023-06-19T10:32:20;5.15;;;4.55;;
11203;SDS011;5659;49.408;11.116;2023-06-19T10:34:46;5.85;;;4.97;;
11203;SDS011;5659;49.408;11.116;2023-06-19T10:37:13;7.30;;;4.85;;
11203;SDS011;5659;49.408;11.116;2023-06-19T10:39:39;6.53;;;4.65;;
11203;SDS011;5659;49.408;11.116;2023-06-19T10:42:06;11.02;;;4.82;;
11203;SDS011;5659;49.408;11.116;2023-06-19T10:44:32;5.65;;;5.03;;
11203;SDS011;5659;49.408;11.116;2023-06-19T10:46:58;5.40;;;4.90;;
11203;SDS011;5659;49.408;11.116;2023-06-19T10:49:25;6.35;;;5.07;;
11203;SDS011;5659;49.408;11.116;2023-06-19T10:51:51;5.03;;;4.53;;
11203;SDS011;5659;49.408;11.116;2023-06-19T10:54:22;6.10;;;4.85;;
11203;SDS011;5659;49.408;11.116;2023-06-19T10:56:48;5.03;;;4.45;;
11203;SDS011;5659;49.408;11.116;2023-06-19T10:59:16;6.57;;;4.57;;
11203;SDS011;5659;49.408;11.116;2023-06-19T11:01:43;6.25;;;4.57;;
11203;SDS011;5659;49.408;11.116;2023-06-19T11:04:11;5.30;;;4.20;;
11203;SDS011;5659;49.408;11.116;2023-06-19T11:06:37;6.43;;;4.60;;
11203;SDS011;5659;49.408;11.116;2023-06-19T11:09:04;5.03;;;4.57;;
11203;SDS011;5659;49.408;11.116;2023-06-19T11:14:02;5.30;;;4.05;;
11203;SDS011;5659;49.408;11.116;2023-06-19T11:16:29;5.85;;;4.35;;
11203;SDS011;5659;49.408;11.116;2023-06-19T11:18:58;6.47;;;4.25;;
11203;SDS011;5659;49.408;11.116;2023-06-19T11:21:31;6.30;;;4.57;;
11203;SDS011;5659;49.408;11.116;2023-06-19T11:23:59;4.45;;;4.05;;
11203;SDS011;5659;49.408;11.116;2023-06-19T11:26:26;5.80;;;4.32;;
11203;SDS011;5659;49.408;11.116;2023-06-19T11:28:52;6.10;;;4.25;;
11203;SDS011;5659;49.408;11.116;2023-06-19T11:31:24;5.78;;;4.30;;
11203;SDS011;5659;49.408;11.116;2023-06-19T11:33:57;4.88;;;4.38;;
11203;SDS011;5659;49.408;11.116;2023-06-19T11:36:23;7.82;;;4.03;;
11203;SDS011;5659;49.408;11.116;2023-06-19T11:38:51;4.47;;;4.07;;
11203;SDS011;5659;49.408;11.116;2023-06-19T11:41:24;5.60;;;4.32;;
11203;SDS011;5659;49.408;11.116;2023-06-19T11:43:51;4.43;;;4.03;;
11203;SDS011;5659;49.408;11.116;2023-06-19T11:46:27;5.72;;;4.07;;
11203;SDS011;5659;49.408;11.116;2023-06-19T11:48:53;5.50;;;3.88;;
11203;SDS011;5659;49.408;11.116;2023-06-19T11:51:19;5.80;;;3.72;;
11203;SDS011;5659;49.408;11.116;2023-06-19T11:53:45;7.07;;;4.30;;
11203;SDS011;5659;49.408;11.116;2023-06-19T11:56:11;4.50;;;3.60;;
11203;SDS011;5659;49.408;11.116;2023-06-19T11:58:37;4.20;;;3.75;;
11203;SDS011;5659;49.408;11.116;2023-06-19T12:01:03;5.82;;;3.88;;
11203;SDS011;5659;49.408;11.116;2023-06-19T12:03:29;4.00;;;3.63;;
11203;SDS011;5659;49.408;11.116;2023-06-19T12:05:55;5.35;;;3.85;;
11203;SDS011;5659;49.408;11.116;2023-06-19T12:08:21;5.30;;;4.22;;
11203;SDS011;5659;49.408;11.116;2023-06-19T12:10:47;6.60;;;3.90;;
11203;SDS011;5659;49.408;11.116;2023-06-19T12:13:14;4.63;;;4.05;;
11203;SDS011;5659;49.408;11.116;2023-06-19T12:15:40;4.35;;;3.95;;
11203;SDS011;5659;49.408;11.116;2023-06-19T12:18:06;4.38;;;3.97;;
11203;SDS011;5659;49.408;11.116;2023-06-19T12:20:32;6.40;;;3.83;;
11203;SDS011;5659;49.408;11.116;2023-06-19T12:22:58;6.95;;;4.00;;
11203;SDS011;5659;49.408;11.116;2023-06-19T12:25:24;6.15;;;4.30;;
11203;SDS011;5659;49.408;11.116;2023-06-19T12:27:50;5.35;;;4.22;;
11203;SDS011;5659;49.408;11.116;2023-06-19T12:30:17;5.15;;;3.90;;
11203;SDS011;5659;49.408;11.116;2023-06-19T12:32:42;4.60;;;4.18;;
11203;SDS011;5659;49.408;11.116;2023-06-19T12:35:08;4.30;;;3.90;;
11203;SDS011;5659;49.408;11.116;2023-06-19T12:37:34;5.75;;;4.07;;
11203;SDS011;5659;49.408;11.116;2023-06-19T12:40:00;6.90;;;3.97;;
11203;SDS011;5659;49.408;11.116;2023-06-19T12:42:32;9.85;;;3.83;;
11203;SDS011;5659;49.408;11.116;2023-06-19T12:44:58;5.35;;;3.88;;
11203;SDS011;5659;49.408;11.116;2023-06-19T12:47:24;6.00;;;3.88;;
11203;SDS011;5659;49.408;11.116;2023-06-19T12:49:50;5.88;;;3.95;;
11203;SDS011;5659;49.408;11.116;2023-06-19T12:52:16;5.60;;;3.95;;
11203;SDS011;5659;49.408;11.116;2023-06-19T12:54:42;5.82;;;3.92;;
11203;SDS011;5659;49.408;11.116;2023-06-19T12:57:08;4.55;;;4.13;;
11203;SDS011;5659;49.408;11.116;2023-06-19T12:59:34;5.05;;;4.00;;
11203;SDS011;5659;49.408;11.116;2023-06-19T13:02:00;4.72;;;4.10;;
11203;SDS011;5659;49.408;11.116;2023-06-19T13:04:26;7.88;;;4.35;;
11203;SDS011;5659;49.408;11.116;2023-06-19T13:06:52;5.43;;;3.83;;
11203;SDS011;5659;49.408;11.116;2023-06-19T13:09:18;4.57;;;4.00;;
11203;SDS011;5659;49.408;11.116;2023-06-19T13:11:44;6.57;;;4.03;;
11203;SDS011;5659;49.408;11.116;2023-06-19T13:14:10;9.43;;;4.10;;
11203;SDS011;5659;49.408;11.116;2023-06-19T13:16:36;6.43;;;4.28;;
11203;SDS011;5659;49.408;11.116;2023-06-19T13:19:02;4.88;;;4.25;;
11203;SDS011;5659;49.408;11.116;2023-06-19T13:21:28;8.05;;;4.13;;
11203;SDS011;5659;49.408;11.116;2023-06-19T13:23:55;4.43;;;3.75;;
11203;SDS011;5659;49.408;11.116;2023-06-19T13:26:21;4.75;;;4.25;;
11203;SDS011;5659;49.408;11.116;2023-06-19T13:28:47;6.97;;;3.88;;
11203;SDS011;5659;49.408;11.116;2023-06-19T13:31:13;3.97;;;3.63;;
11203;SDS011;5659;49.408;11.116;2023-06-19T13:33:39;6.07;;;4.10;;
11203;SDS011;5659;49.408;11.116;2023-06-19T13:36:05;4.13;;;3.72;;
11203;SDS011;5659;49.408;11.116;2023-06-19T13:38:30;4.25;;;3.70;;
11203;SDS011;5659;49.408;11.116;2023-06-19T13:40:56;7.20;;;3.80;;
11203;SDS011;5659;49.408;11.116;2023-06-19T13:43:22;4.93;;;3.35;;
11203;SDS011;5659;49.408;11.116;2023-06-19T13:45:49;7.15;;;3.75;;
11203;SDS011;5659;49.408;11.116;2023-06-19T13:48:15;4.55;;;3.42;;
11203;SDS011;5659;49.408;11.116;2023-06-19T13:50:41;5.07;;;3.53;;
11203;SDS011;5659;49.408;11.116;2023-06-19T13:53:07;4.55;;;3.63;;
11203;SDS011;5659;49.408;11.116;2023-06-19T13:55:33;3.72;;;3.42;;
11203;SDS011;5659;49.408;11.116;2023-06-19T13:57:59;6.90;;;3.63;;
11203;SDS011;5659;49.408;11.116;2023-06-19T14:00:25;6.28;;;3.20;;
11203;SDS011;5659;49.408;11.116;2023-06-19T14:02:51;4.25;;;3.45;;
11203;SDS011;5659;49.408;11.116;2023-06-19T14:05:17;3.50;;;3.20;;
11203;SDS011;5659;49.408;11.116;2023-06-19T14:07:43;3.58;;;3.20;;
11203;SDS011;5659;49.408;11.116;2023-06-19T14:10:09;3.67;;;3.38;;
11203;SDS011;5659;49.408;11.116;2023-06-19T14:12:35;4.47;;;3.70;;
11203;SDS011;5659;49.408;11.116;2023-06-19T14:15:01;4.05;;;3.50;;
11203;SDS011;5659;49.408;11.116;2023-06-19T14:17:27;4.05;;;3.65;;
11203;SDS011;5659;49.408;11.116;2023-06-19T14:19:53;3.15;;;2.80;;
11203;SDS011;5659;49.408;11.116;2023-06-19T14:22:22;3.30;;;3.00;;
11203;SDS011;5659;49.408;11.116;2023-06-19T14:24:47;4.00;;;2.67;;
11203;SDS011;5659;49.408;11.116;2023-06-19T14:27:14;3.80;;;3.25;;
11203;SDS011;5659;49.408;11.116;2023-06-19T14:29:40;7.80;;;3.30;;
11203;SDS011;5659;49.408;11.116;2023-06-19T14:32:06;3.63;;;3.33;;
11203;SDS011;5659;49.408;11.116;2023-06-19T14:34:32;4.88;;;3.35;;
11203;SDS011;5659;49.408;11.116;2023-06-19T14:36:58;3.85;;;3.55;;
11203;SDS011;5659;49.408;11.116;2023-06-19T14:39:24;4.38;;;3.80;;
11203;SDS011;5659;49.408;11.116;2023-06-19T14:41:50;5.13;;;3.20;;
11203;SDS011;5659;49.408;11.116;2023-06-19T14:44:16;5.43;;;3.47;;
11203;SDS011;5659;49.408;11.116;2023-06-19T14:46:42;3.67;;;2.83;;
11203;SDS011;5659;49.408;11.116;2023-06-19T14:49:09;3.85;;;2.90;;
11203;SDS011;5659;49.408;11.116;2023-06-19T14:51:35;4.07;;;3.28;;